Time;durP1;ratioP1;P1;durP2;ratioP2;P2;SDS_P1;SDS_P2;PMS_P1;PMS_P2;Temp;Humidity;BMP_temperature;BMP_pressure;BME280_temperature;BME280_humidity;BME280_pressure;Samples;Min_cycle;Max_cycle;Signal;HPM_P1;HPM_P2
2020/12/11 00:00:07;;;;;;;47.10;21.58;;;;;;;0.41;100.00;94968.22;1031784;28;20050;-71
2020/12/11 00:00:38;;;;;;;49.88;22.17;;;;;;;0.44;100.00;94991.47;1031881;28;20042;-72
2020/12/11 00:01:11;;;;;;;49.83;22.40;;;;;;;0.39;100.00;94988.44;1031643;28;20026;-71
2020/12/11 00:01:41;;;;;;;48.67;22.23;;;;;;;0.42;100.00;94988.97;1035978;28;20017;-71
2020/12/11 00:02:12;;;;;;;46.47;22.13;;;;;;;0.41;100.00;94982.09;1039875;28;20021;-71
2020/12/11 00:02:43;;;;;;;49.20;23.02;;;;;;;0.40;100.00;94985.69;1039840;28;20021;-72
2020/12/11 00:03:15;;;;;;;47.58;22.40;;;;;;;0.41;100.00;94982.09;1039794;28;20030;-71
2020/12/11 00:03:46;;;;;;;48.78;22.73;;;;;;;0.36;100.00;94990.34;1039803;28;20465;-71
2020/12/11 00:04:17;;;;;;;52.03;22.08;;;;;;;0.28;100.00;94977.16;1035850;28;20049;-70
2020/12/11 00:04:48;;;;;;;50.05;21.58;;;;;;;0.41;100.00;94989.94;1035945;28;20021;-72
2020/12/11 00:05:19;;;;;;;53.13;23.63;;;;;;;0.40;100.00;94979.63;1039870;28;20032;-72
2020/12/11 00:05:50;;;;;;;51.22;23.00;;;;;;;0.50;100.00;94988.28;1035722;28;20057;-70
2020/12/11 00:06:21;;;;;;;53.35;21.75;;;;;;;0.35;100.00;94978.25;1035943;28;20021;-71
2020/12/11 00:06:52;;;;;;;50.75;22.85;;;;;;;0.45;100.00;94988.69;1044002;28;20025;-72
2020/12/11 00:07:24;;;;;;;52.28;23.83;;;;;;;0.46;100.00;94989.53;1048496;28;20054;-71
2020/12/11 00:07:54;;;;;;;51.17;22.45;;;;;;;0.41;100.00;94989.94;1039936;28;20116;-71
2020/12/11 00:08:25;;;;;;;54.80;23.42;;;;;;;0.32;100.00;94986.34;1044077;28;20449;-71
2020/12/11 00:08:56;;;;;;;48.90;21.75;;;;;;;0.29;100.00;94983.19;1031719;28;20425;-71
2020/12/11 00:09:27;;;;;;;49.35;23.65;;;;;;;0.28;100.00;94989.38;1031815;28;20022;-71
2020/12/11 00:09:58;;;;;;;50.58;22.52;;;;;;;0.30;100.00;94987.47;1048284;28;20063;-71
2020/12/11 00:10:29;;;;;;;50.03;23.17;;;;;;;0.33;100.00;94984.56;1039947;28;20049;-71
2020/12/11 00:10:59;;;;;;;52.25;22.05;;;;;;;0.12;100.00;94948.16;1039701;28;20520;-72
2020/12/11 00:11:30;;;;;;;57.33;25.15;;;;;;;0.39;100.00;94993.66;1047711;28;20028;-71
2020/12/11 00:12:02;;;;;;;51.63;21.92;;;;;;;0.31;100.00;94979.47;1043978;28;20025;-71
2020/12/11 00:12:33;;;;;;;52.28;23.08;;;;;;;0.39;100.00;94983.22;1039978;28;20053;-71
2020/12/11 00:13:03;;;;;;;50.35;22.40;;;;;;;0.44;100.00;94984.44;1035744;28;20025;-71
2020/12/11 00:13:34;;;;;;;55.05;23.48;;;;;;;0.39;100.00;94980.59;1039883;28;20116;-71
2020/12/11 00:14:05;;;;;;;54.10;23.13;;;;;;;0.33;100.00;94977.56;1035773;28;20042;-71
2020/12/11 00:14:36;;;;;;;50.50;22.17;;;;;;;0.41;100.00;94981.28;1035844;28;20030;-71
2020/12/11 00:15:08;;;;;;;50.97;22.42;;;;;;;0.32;100.00;94980.31;1035707;28;20421;-71
2020/12/11 00:15:39;;;;;;;53.42;23.33;;;;;;;0.39;100.00;94981.41;1035828;28;20025;-71
2020/12/11 00:16:10;;;;;;;50.58;22.40;;;;;;;0.33;100.00;94977.56;1031836;28;20506;-71
2020/12/11 00:16:41;;;;;;;51.45;22.85;;;;;;;0.23;100.00;94955.84;1031882;28;20050;-71
2020/12/11 00:17:11;;;;;;;52.35;23.13;;;;;;;0.34;100.00;94976.59;1035710;28;20048;-71
2020/12/11 00:17:42;;;;;;;56.58;23.58;;;;;;;0.35;100.00;94972.22;1035912;28;20029;-71
2020/12/11 00:18:13;;;;;;;50.95;22.55;;;;;;;0.36;100.00;94977.28;1031731;28;20026;-71
2020/12/11 00:18:44;;;;;;;50.17;22.92;;;;;;;0.36;100.00;94971.25;1035706;28;20025;-72
2020/12/11 00:19:15;;;;;;;55.15;23.58;;;;;;;0.29;100.00;94968.34;1031894;28;20115;-71
2020/12/11 00:19:47;;;;;;;48.95;22.60;;;;;;;0.36;100.00;94979.06;1039873;28;20104;-71
2020/12/11 00:20:18;;;;;;;51.05;21.80;;;;;;;0.37;100.00;94975.50;1044138;28;20025;-71
2020/12/11 00:20:49;;;;;;;52.08;23.50;;;;;;;0.30;100.00;94969.19;1039701;28;20021;-71
2020/12/11 00:21:20;;;;;;;55.28;23.25;;;;;;;0.31;100.00;94976.03;1035748;28;20478;-71
2020/12/11 00:21:52;;;;;;;56.58;23.85;;;;;;;0.25;100.00;94960.94;1052306;28;20053;-71
2020/12/11 00:22:23;;;;;;;54.40;23.25;;;;;;;0.35;100.00;94980.06;1044028;28;20047;-72
2020/12/11 00:22:54;;;;;;;56.78;24.55;;;;;;;0.28;100.00;94974.53;1031661;28;20014;-72
2020/12/11 00:23:26;;;;;;;51.38;23.73;;;;;;;0.31;100.00;94979.47;1039970;28;20117;-71
2020/12/11 00:23:57;;;;;;;57.28;24.83;;;;;;;0.31;100.00;94976.88;1039725;28;20029;-71
2020/12/11 00:24:28;;;;;;;60.00;22.77;;;;;;;0.30;100.00;94980.44;1035808;28;20492;-71
2020/12/11 00:24:59;;;;;;;58.53;24.52;;;;;;;0.29;100.00;94977.97;1035676;28;20022;-72
2020/12/11 00:25:31;;;;;;;55.60;23.13;;;;;;;0.37;100.00;94984.16;1048150;28;20025;-72
2020/12/11 00:26:02;;;;;;;59.20;24.80;;;;;;;0.42;100.00;94980.31;1044071;28;20035;-71
2020/12/11 00:26:32;;;;;;;54.63;23.58;;;;;;;0.40;100.00;94977.00;1035924;28;20017;-71
2020/12/11 00:27:03;;;;;;;51.47;23.63;;;;;;;0.27;100.00;94969.47;1035695;28;20026;-72
2020/12/11 00:27:34;;;;;;;54.13;22.88;;;;;;;0.21;100.00;94963.00;1040050;28;20100;-71
2020/12/11 00:28:05;;;;;;;57.13;23.33;;;;;;;0.24;100.00;94973.16;1039982;28;20036;-73
2020/12/11 00:28:36;;;;;;;55.00;22.65;;;;;;;0.25;100.00;94982.66;1031750;28;20022;-71
2020/12/11 00:29:06;;;;;;;52.67;22.95;;;;;;;0.20;100.00;94982.22;1031527;28;20026;-71
2020/12/11 00:29:37;;;;;;;54.88;24.50;;;;;;;0.23;100.00;94975.91;1036309;28;20090;-71
2020/12/11 00:30:08;;;;;;;55.85;23.60;;;;;;;0.24;100.00;94981.00;1040044;28;20014;-71
2020/12/11 00:30:39;;;;;;;50.40;21.85;;;;;;;0.20;100.00;94965.75;1032033;28;20022;-71
2020/12/11 00:31:10;;;;;;;57.15;23.20;;;;;;;0.26;100.00;94978.25;1035612;28;20090;-72
2020/12/11 00:31:40;;;;;;;52.33;23.20;;;;;;;0.24;100.00;94967.13;1039913;28;20372;-71
2020/12/11 00:32:11;;;;;;;55.17;23.02;;;;;;;0.26;100.00;94975.63;1035887;28;20101;-71
2020/12/11 00:32:42;;;;;;;52.05;22.35;;;;;;;0.34;100.00;94976.59;1035827;28;20021;-72
2020/12/11 00:33:14;;;;;;;53.92;23.45;;;;;;;0.33;100.00;94979.34;1035807;28;20030;-71
2020/12/11 00:33:45;;;;;;;52.10;23.67;;;;;;;0.40;100.00;94980.47;1035951;28;20482;-71
2020/12/11 00:34:15;;;;;;;49.42;23.27;;;;;;;0.35;100.00;94967.00;1031714;28;20014;-71
2020/12/11 00:34:46;;;;;;;53.40;23.83;;;;;;;0.35;100.00;94975.66;1035859;28;20018;-71
2020/12/11 00:35:17;;;;;;;48.60;22.70;;;;;;;0.27;100.00;94972.06;1031836;28;20019;-71
2020/12/11 00:35:48;;;;;;;53.22;22.83;;;;;;;0.16;100.00;94962.59;1035789;28;20308;-71
2020/12/11 00:36:26;;;;;;;52.92;22.77;;;;;;;0.34;100.00;94979.22;1035736;28;20018;-71
2020/12/11 00:36:57;;;;;;;52.92;23.10;;;;;;;0.30;100.00;94977.03;1039782;28;20115;-72
2020/12/11 00:37:29;;;;;;;53.63;22.92;;;;;;;0.31;100.00;94987.31;1039987;28;20024;-71
2020/12/11 00:38:00;;;;;;;53.22;22.70;;;;;;;0.31;100.00;94983.88;1035828;28;20406;-71
2020/12/11 00:38:30;;;;;;;50.97;23.13;;;;;;;0.22;100.00;94982.91;1031701;28;20018;-71
2020/12/11 00:39:01;;;;;;;52.25;23.20;;;;;;;0.17;100.00;94969.44;1039663;28;20017;-72
2020/12/11 00:39:33;;;;;;;57.00;23.83;;;;;;;0.20;100.00;94979.63;1035832;28;20025;-72
2020/12/11 00:40:04;;;;;;;53.83;23.00;;;;;;;0.21;100.00;94985.66;1035918;28;20478;-71
2020/12/11 00:40:35;;;;;;;59.47;24.50;;;;;;;0.22;100.00;94987.31;1039772;28;20381;-72
2020/12/11 00:41:05;;;;;;;51.65;23.38;;;;;;;0.24;100.00;94985.41;1039774;28;20032;-71
2020/12/11 00:41:38;;;;;;;51.78;22.45;;;;;;;0.30;100.00;94979.63;1040063;28;20017;-72
2020/12/11 00:42:09;;;;;;;52.63;23.58;;;;;;;0.26;100.00;94975.63;1036005;28;20457;-71
2020/12/11 00:42:40;;;;;;;56.30;23.48;;;;;;;0.24;100.00;94981.00;1031670;28;20024;-72
2020/12/11 00:43:11;;;;;;;55.53;23.33;;;;;;;0.23;100.00;94983.72;1031589;28;20550;-71
2020/12/11 00:43:42;;;;;;;54.95;23.27;;;;;;;0.25;100.00;94972.22;1039876;28;20018;-71
2020/12/11 00:44:12;;;;;;;51.50;23.50;;;;;;;0.24;100.00;94972.34;1039934;28;20071;-71
2020/12/11 00:44:43;;;;;;;56.28;23.05;;;;;;;0.25;100.00;94974.00;1035705;28;20018;-72
2020/12/11 00:45:14;;;;;;;52.38;22.80;;;;;;;0.22;100.00;94975.09;1035762;28;20026;-71
2020/12/11 00:45:45;;;;;;;52.53;22.35;;;;;;;0.23;100.00;94975.91;1035655;28;20475;-73
2020/12/11 00:46:20;;;;;;;54.05;22.48;;;;;;;0.22;100.00;94976.88;1044086;28;20147;-71
2020/12/11 00:46:51;;;;;;;55.50;24.13;;;;;;;0.16;100.00;94981.69;1035913;28;20088;-71
2020/12/11 00:47:22;;;;;;;56.05;23.27;;;;;;;0.18;100.00;94979.75;1036103;28;20022;-71
2020/12/11 00:47:53;;;;;;;55.25;23.63;;;;;;;0.20;100.00;94971.78;1032011;28;20449;-71
2020/12/11 00:48:24;;;;;;;53.33;22.10;;;;;;;0.29;100.00;94977.97;1039961;28;20024;-72
2020/12/11 00:48:55;;;;;;;58.03;23.70;;;;;;;0.30;100.00;94977.03;1043990;28;20093;-71
2020/12/11 00:49:25;;;;;;;59.00;24.55;;;;;;;0.31;100.00;94978.66;1039869;28;20421;-71
2020/12/11 00:49:56;;;;;;;55.22;23.48;;;;;;;0.35;100.00;94982.66;1039871;28;20085;-71
2020/12/11 00:50:27;;;;;;;53.13;22.98;;;;;;;0.33;100.00;94974.13;1048271;28;20025;-70
2020/12/11 00:50:57;;;;;;;51.38;22.58;;;;;;;0.29;100.00;94967.53;1035720;28;20529;-72
2020/12/11 00:51:28;;;;;;;53.45;21.98;;;;;;;0.38;100.00;94984.97;1036068;28;20049;-71
2020/12/11 00:51:59;;;;;;;55.53;22.95;;;;;;;0.40;100.00;94979.63;1043967;28;20460;-71
2020/12/11 00:52:30;;;;;;;51.05;22.88;;;;;;;0.42;100.00;94982.91;1035779;28;20378;-72
2020/12/11 00:53:01;;;;;;;62.95;25.25;;;;;;;0.37;100.00;94967.69;1035650;28;20022;-71
2020/12/11 00:53:32;;;;;;;61.08;26.15;;;;;;;0.41;100.00;94976.88;1035694;28;20125;-72
2020/12/11 00:54:02;;;;;;;55.33;24.02;;;;;;;0.38;100.00;94977.13;1035591;28;20025;-71
2020/12/11 00:54:33;;;;;;;58.22;24.25;;;;;;;0.44;100.00;94976.59;1031638;28;20030;-72
2020/12/11 00:55:04;;;;;;;59.15;24.10;;;;;;;0.43;100.00;94976.75;1036153;28;20100;-71
2020/12/11 00:55:35;;;;;;;55.92;23.23;;;;;;;0.35;100.00;94969.59;1031856;28;20121;-72
2020/12/11 00:56:08;;;;;;;58.97;23.63;;;;;;;0.31;100.00;94979.47;1043937;28;20025;-72
2020/12/11 00:56:39;;;;;;;64.30;24.05;;;;;;;0.34;100.00;94967.94;1039800;28;20072;-71
2020/12/11 00:57:10;;;;;;;59.70;23.42;;;;;;;0.39;100.00;94970.97;1031653;28;20026;-71
2020/12/11 00:57:41;;;;;;;57.17;23.83;;;;;;;0.35;100.00;94972.22;1031662;28;20037;-72
2020/12/11 00:58:11;;;;;;;58.35;23.42;;;;;;;0.34;100.00;94968.75;1044054;28;20024;-71
2020/12/11 00:58:42;;;;;;;56.33;22.90;;;;;;;0.34;100.00;94970.56;1031655;28;20142;-72
2020/12/11 00:59:13;;;;;;;58.67;24.08;;;;;;;0.35;100.00;94961.78;1043884;28;20025;-71
2020/12/11 00:59:44;;;;;;;58.15;23.42;;;;;;;0.31;100.00;94966.41;1048028;28;20024;-71
2020/12/11 01:00:15;;;;;;;61.30;24.73;;;;;;;0.28;100.00;94955.44;1048054;28;20020;-71
2020/12/11 01:00:46;;;;;;;53.60;22.63;;;;;;;0.26;100.00;94955.59;1039717;28;20048;-71
2020/12/11 01:01:17;;;;;;;59.20;23.83;;;;;;;0.26;100.00;94963.44;1039719;28;20036;-71
2020/12/11 01:01:48;;;;;;;57.58;24.42;;;;;;;0.25;100.00;94964.38;1040027;28;20022;-71
2020/12/11 01:02:19;;;;;;;55.17;24.45;;;;;;;0.12;100.00;94937.69;1035927;28;20386;-70
2020/12/11 01:02:50;;;;;;;58.72;23.65;;;;;;;0.28;100.00;94964.09;1035978;28;20105;-71
2020/12/11 01:03:21;;;;;;;62.97;23.95;;;;;;;0.35;100.00;94956.56;1039753;28;20389;-72
2020/12/11 01:03:51;;;;;;;55.97;24.00;;;;;;;0.37;100.00;94955.44;1035667;28;20014;-71
2020/12/11 01:04:22;;;;;;;54.78;24.10;;;;;;;0.30;100.00;94946.50;1043901;28;20017;-71
2020/12/11 01:04:54;;;;;;;58.55;23.65;;;;;;;0.37;100.00;94954.63;1035599;28;20026;-72
2020/12/11 01:05:25;;;;;;;52.00;22.33;;;;;;;0.39;100.00;94955.31;1035803;28;20363;-71
2020/12/11 01:05:55;;;;;;;56.78;23.67;;;;;;;0.38;100.00;94951.03;1031787;28;20097;-71
2020/12/11 01:06:26;;;;;;;55.90;22.55;;;;;;;0.41;100.00;94960.38;1043931;28;20021;-71
2020/12/11 01:06:57;;;;;;;54.53;22.17;;;;;;;0.39;100.00;94955.31;1035655;28;20144;-71
2020/12/11 01:07:28;;;;;;;53.97;23.75;;;;;;;0.33;100.00;94956.69;1036025;28;20080;-70
2020/12/11 01:07:59;;;;;;;54.58;23.05;;;;;;;0.37;100.00;94952.81;1048060;28;20024;-72
2020/12/11 01:08:30;;;;;;;55.28;24.17;;;;;;;0.33;100.00;94953.22;1039831;28;20358;-71
2020/12/11 01:09:00;;;;;;;58.05;23.45;;;;;;;0.32;100.00;94954.22;1039730;28;20032;-71
2020/12/11 01:09:31;;;;;;;56.65;22.58;;;;;;;0.31;100.00;94955.97;1043895;28;20473;-71
2020/12/11 01:10:03;;;;;;;55.35;24.60;;;;;;;0.28;100.00;94955.44;1035731;28;20145;-70
2020/12/11 01:10:34;;;;;;;55.38;23.10;;;;;;;0.26;100.00;94952.13;1040001;28;20025;-71
2020/12/11 01:11:04;;;;;;;56.08;23.40;;;;;;;0.33;100.00;94964.53;1039608;28;20425;-72
2020/12/11 01:11:35;;;;;;;56.67;24.00;;;;;;;0.29;100.00;94957.09;1039345;28;20032;-71
2020/12/11 01:12:06;;;;;;;52.08;22.55;;;;;;;0.19;100.00;94951.84;1043896;28;20029;-72
2020/12/11 01:12:37;;;;;;;52.58;23.95;;;;;;;0.30;100.00;94961.34;1039877;28;20022;-72
2020/12/11 01:13:07;;;;;;;52.55;22.23;;;;;;;0.33;100.00;94963.66;1031699;28;20140;-71
2020/12/11 01:13:38;;;;;;;51.03;22.20;;;;;;;0.33;100.00;94961.06;1043802;28;20123;-72
2020/12/11 01:14:09;;;;;;;60.15;23.50;;;;;;;0.32;100.00;94956.81;1039843;28;20112;-71
2020/12/11 01:14:40;;;;;;;57.20;24.80;;;;;;;0.33;100.00;94963.66;1039895;28;20036;-72
2020/12/11 01:15:11;;;;;;;56.85;24.80;;;;;;;0.30;100.00;94962.19;1031635;28;20072;-71
2020/12/11 01:15:42;;;;;;;56.95;23.35;;;;;;;0.36;100.00;94969.44;1039793;28;20028;-72
2020/12/11 01:16:12;;;;;;;55.90;25.13;;;;;;;0.38;100.00;94961.47;1039851;28;20036;-71
2020/12/11 01:16:44;;;;;;;57.50;25.05;;;;;;;0.37;100.00;94963.28;1039709;28;20041;-72
2020/12/11 01:17:15;;;;;;;55.13;23.08;;;;;;;0.31;100.00;94955.97;1035679;28;20072;-71
2020/12/11 01:17:46;;;;;;;55.28;23.95;;;;;;;0.30;100.00;94964.78;1035670;28;20033;-72
2020/12/11 01:18:17;;;;;;;59.58;24.90;;;;;;;0.26;100.00;94963.44;1035745;28;20397;-71
2020/12/11 01:18:47;;;;;;;53.40;23.02;;;;;;;0.18;100.00;94948.44;1035942;28;20175;-74
2020/12/11 01:19:18;;;;;;;55.63;24.10;;;;;;;0.26;100.00;94965.19;1036273;28;20029;-70
2020/12/11 01:19:49;;;;;;;55.40;23.58;;;;;;;0.26;100.00;94962.56;1044320;28;20032;-72
2020/12/11 01:20:20;;;;;;;55.55;23.75;;;;;;;0.26;100.00;94966.03;1043964;28;20497;-71
2020/12/11 01:20:51;;;;;;;53.20;23.88;;;;;;;0.29;100.00;94967.53;1043681;28;20017;-72
2020/12/11 01:21:22;;;;;;;58.88;23.15;;;;;;;0.31;100.00;94968.22;1031674;28;20030;-70
2020/12/11 01:21:53;;;;;;;56.85;23.60;;;;;;;0.24;100.00;94964.50;1035736;28;20104;-71
2020/12/11 01:22:24;;;;;;;63.92;24.55;;;;;;;0.22;100.00;94958.59;1043946;28;20029;-70
2020/12/11 01:22:54;;;;;;;64.32;25.98;;;;;;;0.26;100.00;94966.03;1039765;28;20027;-71
2020/12/11 01:23:25;;;;;;;55.65;24.15;;;;;;;0.30;100.00;94969.19;1031631;28;20022;-73
2020/12/11 01:23:56;;;;;;;56.55;23.73;;;;;;;0.33;100.00;94966.28;1035583;28;20022;-71
2020/12/11 01:24:27;;;;;;;51.13;23.02;;;;;;;0.39;100.00;94960.53;1035717;28;20557;-71
2020/12/11 01:24:58;;;;;;;57.78;24.52;;;;;;;0.45;100.00;94966.97;1031338;28;20023;-73
2020/12/11 01:25:29;;;;;;;61.03;23.70;;;;;;;0.43;100.00;94964.50;1031685;28;20041;-71
2020/12/11 01:26:00;;;;;;;57.70;24.60;;;;;;;0.32;100.00;94939.34;1035813;28;20037;-71
2020/12/11 01:26:31;;;;;;;55.67;23.35;;;;;;;0.48;100.00;94957.06;1035792;28;20032;-74
2020/12/11 01:27:02;;;;;;;62.58;25.25;;;;;;;0.44;100.00;94958.31;1031504;28;20034;-72
2020/12/11 01:27:33;;;;;;;61.53;23.73;;;;;;;0.47;100.00;94958.06;1039719;28;20021;-74
2020/12/11 01:28:04;;;;;;;60.42;24.52;;;;;;;0.47;100.00;94959.81;1039799;28;20071;-72
2020/12/11 01:28:35;;;;;;;59.90;23.58;;;;;;;0.40;100.00;94940.44;1035670;28;20072;-70
2020/12/11 01:29:06;;;;;;;54.03;22.83;;;;;;;0.43;100.00;94953.25;1039649;28;20113;-71
2020/12/11 01:29:37;;;;;;;56.30;23.25;;;;;;;0.45;100.00;94956.53;1035651;28;20018;-71
2020/12/11 01:30:08;;;;;;;60.50;23.95;;;;;;;0.52;100.00;94947.16;1035781;28;20018;-71
2020/12/11 01:30:38;;;;;;;57.45;24.75;;;;;;;0.46;100.00;94953.78;1043861;28;20074;-72
2020/12/11 01:31:09;;;;;;;53.80;23.17;;;;;;;0.43;100.00;94950.63;1039547;28;20053;-71
2020/12/11 01:31:40;;;;;;;59.55;24.55;;;;;;;0.41;100.00;94953.38;1035707;28;20525;-71
2020/12/11 01:32:11;;;;;;;55.47;23.98;;;;;;;0.45;100.00;94952.13;1044181;28;20013;-71
2020/12/11 01:32:41;;;;;;;52.15;21.98;;;;;;;0.45;100.00;94957.34;1043830;28;20062;-73
2020/12/11 01:33:12;;;;;;;52.85;24.65;;;;;;;0.43;100.00;94961.06;1040541;28;20030;-71
2020/12/11 01:33:45;;;;;;;53.42;23.02;;;;;;;0.46;100.00;94956.41;1036537;28;20033;-71
2020/12/11 01:34:16;;;;;;;58.08;24.20;;;;;;;0.50;100.00;94960.38;1036405;28;20025;-71
2020/12/11 01:34:47;;;;;;;51.10;22.98;;;;;;;0.41;100.00;94942.91;1040440;28;20045;-71
2020/12/11 01:35:17;;;;;;;56.13;23.88;;;;;;;0.49;100.00;94957.91;1036462;28;20026;-71
2020/12/11 01:35:48;;;;;;;51.92;21.42;;;;;;;0.42;100.00;94938.50;1036638;28;20010;-71
2020/12/11 01:36:27;;;;;;;52.28;23.15;;;;;;;0.50;100.00;94936.03;1032365;28;20109;-71
2020/12/11 01:37:05;;;;;;;48.20;21.30;;;;;;;0.65;100.00;94952.94;1036360;28;20025;-72
2020/12/11 01:37:36;;;;;;;53.30;23.70;;;;;;;0.60;100.00;94955.16;1044720;28;20469;-71
2020/12/11 01:38:07;;;;;;;52.45;23.08;;;;;;;0.52;100.00;94957.63;1036462;28;20069;-71
2020/12/11 01:38:37;;;;;;;54.50;23.13;;;;;;;0.52;100.00;94958.47;1044866;28;20096;-72
2020/12/11 01:39:08;;;;;;;50.75;22.80;;;;;;;0.54;100.00;94961.75;1036734;28;20026;-72
2020/12/11 01:39:39;;;;;;;48.25;22.83;;;;;;;0.54;100.00;94963.53;1040558;28;20025;-71
2020/12/11 01:40:10;;;;;;;52.90;22.90;;;;;;;0.39;100.00;94950.06;1032352;28;20494;-71
2020/12/11 01:40:41;;;;;;;54.03;23.58;;;;;;;0.39;100.00;94963.13;1040480;28;20426;-71
2020/12/11 01:41:11;;;;;;;57.58;22.85;;;;;;;0.28;100.00;94968.47;1032192;28;20014;-71
2020/12/11 01:41:42;;;;;;;51.72;23.38;;;;;;;0.23;100.00;94962.84;1036419;28;20020;-71
2020/12/11 01:42:13;;;;;;;49.72;22.40;;;;;;;0.28;100.00;94966.72;1040544;28;20163;-71
2020/12/11 01:42:44;;;;;;;60.30;24.25;;;;;;;0.24;100.00;94965.31;1044562;28;20401;-71
2020/12/11 01:43:18;;;;;;;50.78;23.02;;;;;;;0.26;100.00;94968.66;1040339;28;20021;-71
2020/12/11 01:43:49;;;;;;;57.80;25.83;;;;;;;0.33;100.00;94974.13;1040408;28;20028;-71
2020/12/11 01:44:19;;;;;;;55.15;24.67;;;;;;;0.16;100.00;94947.75;1040435;28;20040;-71
2020/12/11 01:44:51;;;;;;;55.45;23.98;;;;;;;0.05;100.00;94934.00;1044535;28;20074;-73
2020/12/11 01:45:21;;;;;;;52.85;23.55;;;;;;;0.27;100.00;94964.25;1040633;28;20101;-71
2020/12/11 01:45:52;;;;;;;54.25;23.33;;;;;;;0.17;100.00;94967.69;1048710;28;20027;-71
2020/12/11 01:46:37;;;;;;;57.10;24.75;;;;;;;0.17;100.00;94944.19;1040594;28;20490;-72
2020/12/11 01:47:07;;;;;;;50.22;22.48;;;;;;;0.31;100.00;94960.38;1036308;28;20035;-72
2020/12/11 01:47:39;;;;;;;54.92;23.30;;;;;;;0.32;100.00;94957.63;1048663;28;20138;-72
2020/12/11 01:48:10;;;;;;;57.47;24.88;;;;;;;0.32;100.00;94957.63;1036385;28;20371;-71
2020/12/11 01:48:41;;;;;;;51.47;22.88;;;;;;;0.21;100.00;94954.31;1040358;28;20024;-71
2020/12/11 01:49:13;;;;;;;55.90;23.33;;;;;;;0.24;100.00;94960.09;1036312;28;20034;-71
2020/12/11 01:49:45;;;;;;;51.97;23.17;;;;;;;0.20;100.00;94958.72;1036554;28;20026;-71
2020/12/11 01:50:23;;;;;;;55.13;23.67;;;;;;;0.22;100.00;94953.38;1032337;28;20371;-71
2020/12/11 01:50:53;;;;;;;53.35;23.67;;;;;;;0.21;100.00;94954.31;1032136;28;20029;-72
2020/12/11 01:51:24;;;;;;;50.30;23.27;;;;;;;0.26;100.00;94957.34;1044629;28;20087;-71
2020/12/11 01:51:55;;;;;;;52.05;23.98;;;;;;;0.25;100.00;94953.94;1044693;28;20047;-71
2020/12/11 01:52:25;;;;;;;54.45;23.17;;;;;;;0.31;100.00;94957.78;1040461;28;20025;-71
2020/12/11 01:52:56;;;;;;;52.40;23.48;;;;;;;0.32;100.00;94954.22;1040339;28;20017;-71
2020/12/11 01:53:27;;;;;;;50.78;22.35;;;;;;;0.24;100.00;94951.44;1036355;28;20116;-71
2020/12/11 01:53:58;;;;;;;49.13;22.33;;;;;;;0.25;100.00;94953.13;1048719;28;20116;-71
2020/12/11 01:54:29;;;;;;;53.53;24.55;;;;;;;0.23;100.00;94957.63;1036607;28;20024;-71
2020/12/11 01:55:00;;;;;;;53.78;24.55;;;;;;;0.28;100.00;94960.66;1040302;28;20025;-72
2020/12/11 01:55:30;;;;;;;48.78;23.40;;;;;;;0.33;100.00;94953.22;1040449;28;20424;-71
2020/12/11 01:56:02;;;;;;;49.95;22.80;;;;;;;0.31;100.00;94955.97;1036302;28;20084;-71
2020/12/11 01:56:36;;;;;;;50.92;23.73;;;;;;;0.20;100.00;94937.03;1040429;28;20033;-70
2020/12/11 01:57:09;;;;;;;51.55;24.25;;;;;;;0.24;100.00;94947.03;1044561;28;20027;-71
2020/12/11 01:57:45;;;;;;;50.33;22.80;;;;;;;0.30;100.00;94953.53;1040428;28;20024;-72
2020/12/11 01:58:19;;;;;;;52.25;24.13;;;;;;;0.24;100.00;94948.84;1040425;28;20022;-70
2020/12/11 01:58:49;;;;;;;52.78;22.67;;;;;;;0.25;100.00;94948.72;1036192;28;20078;-71
2020/12/11 01:59:26;;;;;;;49.92;22.77;;;;;;;0.23;100.00;94955.00;1048627;28;20119;-71
2020/12/11 01:59:57;;;;;;;50.22;23.35;;;;;;;0.15;100.00;94940.88;1044486;28;20409;-71
2020/12/11 02:00:28;;;;;;;51.88;23.73;;;;;;;0.08;100.00;94950.19;1036358;28;20033;-71
2020/12/11 02:00:59;;;;;;;50.63;23.70;;;;;;;0.16;100.00;94942.53;1044296;28;20025;-71
2020/12/11 02:01:31;;;;;;;52.90;24.13;;;;;;;0.18;100.00;94948.44;1040429;28;20021;-71
2020/12/11 02:02:03;;;;;;;47.97;21.95;;;;;;;0.25;100.00;94942.66;1040306;28;20026;-72
2020/12/11 02:02:42;;;;;;;46.38;22.75;;;;;;;0.21;100.00;94930.84;1040589;28;20017;-70
2020/12/11 02:03:13;;;;;;;51.20;23.13;;;;;;;0.29;100.00;94936.19;1040340;28;20131;-71
2020/12/11 02:03:44;;;;;;;53.95;23.90;;;;;;;0.22;100.00;94933.31;1036238;28;20025;-71
2020/12/11 02:04:15;;;;;;;50.00;23.45;;;;;;;0.30;100.00;94937.88;1036374;28;20028;-71
2020/12/11 02:04:46;;;;;;;42.63;21.80;;;;;;;0.32;100.00;94941.16;1032179;28;20033;-71
2020/12/11 02:05:17;;;;;;;44.25;21.67;;;;;;;0.28;100.00;94938.00;1040342;28;20474;-71
2020/12/11 02:05:48;;;;;;;52.70;24.55;;;;;;;0.29;100.00;94937.00;1044663;28;20020;-71
2020/12/11 02:06:19;;;;;;;47.65;22.90;;;;;;;0.17;100.00;94922.47;1040423;28;20025;-71
2020/12/11 02:06:49;;;;;;;50.58;24.27;;;;;;;0.23;100.00;94927.13;1036289;28;20064;-71
2020/12/11 02:07:20;;;;;;;43.10;22.05;;;;;;;0.31;100.00;94931.66;1040465;28;20580;-71
2020/12/11 02:07:52;;;;;;;48.38;22.90;;;;;;;0.28;100.00;94932.78;1036272;28;20079;-71
2020/12/11 02:08:22;;;;;;;40.80;21.17;;;;;;;0.30;100.00;94930.03;1036328;28;20069;-71
2020/12/11 02:08:55;;;;;;;41.05;21.80;;;;;;;0.23;100.00;94913.25;1036111;28;20022;-72
2020/12/11 02:09:26;;;;;;;41.58;20.02;;;;;;;0.24;100.00;94927.97;1040363;28;20018;-71
2020/12/11 02:09:57;;;;;;;38.97;19.80;;;;;;;0.28;100.00;94935.38;1048614;28;20040;-71
2020/12/11 02:10:28;;;;;;;37.70;20.42;;;;;;;0.19;100.00;94933.56;1036338;28;20131;-72
2020/12/11 02:10:59;;;;;;;38.97;19.75;;;;;;;0.26;100.00;94933.84;1040118;28;20465;-71
2020/12/11 02:11:30;;;;;;;38.42;20.10;;;;;;;0.18;100.00;94929.34;1039998;28;20009;-72
2020/12/11 02:12:02;;;;;;;38.83;19.05;;;;;;;0.17;100.00;94932.91;1040274;28;20076;-71
2020/12/11 02:12:33;;;;;;;42.35;21.48;;;;;;;0.17;100.00;94927.69;1036203;28;20109;-72
2020/12/11 02:13:11;;;;;;;45.20;21.83;;;;;;;0.16;100.00;94926.03;1036146;28;20358;-71
2020/12/11 02:13:42;;;;;;;40.15;20.73;;;;;;;0.14;100.00;94934.00;1040253;28;20462;-71
2020/12/11 02:14:12;;;;;;;39.53;20.30;;;;;;;0.12;100.00;94930.72;1040360;28;20048;-72
2020/12/11 02:14:48;;;;;;;40.35;20.73;;;;;;;-0.16;100.00;94880.16;1040280;28;20056;-71
2020/12/11 02:15:18;;;;;;;39.47;20.23;;;;;;;-0.01;100.00;94891.00;1036207;28;20014;-71
2020/12/11 02:15:50;;;;;;;38.22;19.08;;;;;;;0.15;100.00;94933.03;1032198;28;20015;-71
2020/12/11 02:16:21;;;;;;;40.17;19.23;;;;;;;0.06;100.00;94920.81;1036256;28;20022;-71
2020/12/11 02:17:02;;;;;;;40.42;19.42;;;;;;;0.01;100.00;94917.78;1032204;28;20046;-71
2020/12/11 02:17:35;;;;;;;40.60;19.58;;;;;;;0.16;100.00;94934.69;1032413;28;20470;-71
2020/12/11 02:18:06;;;;;;;40.35;20.30;;;;;;;0.13;100.00;94931.53;1032318;28;20045;-72
2020/12/11 02:18:39;;;;;;;38.03;18.75;;;;;;;0.10;100.00;94935.22;1032171;28;20478;-71
2020/12/11 02:19:11;;;;;;;37.45;19.75;;;;;;;0.08;100.00;94938.94;1032119;28;20029;-72
2020/12/11 02:19:42;;;;;;;38.67;18.95;;;;;;;0.10;100.00;94927.41;1040305;28;20470;-72
2020/12/11 02:20:13;;;;;;;40.22;20.45;;;;;;;0.15;100.00;94933.03;1040531;28;20024;-74
2020/12/11 02:20:44;;;;;;;41.75;19.95;;;;;;;0.18;100.00;94935.38;1044320;28;20024;-75
2020/12/11 02:21:14;;;;;;;40.33;19.98;;;;;;;0.12;100.00;94929.88;1040268;28;20104;-73
2020/12/11 02:21:45;;;;;;;38.70;19.55;;;;;;;0.11;100.00;94923.03;1036324;28;20022;-72
2020/12/11 02:22:17;;;;;;;36.13;18.90;;;;;;;0.13;100.00;94927.13;1044498;28;20215;-71
2020/12/11 02:22:48;;;;;;;36.88;19.42;;;;;;;0.11;100.00;94929.06;1044332;28;20515;-72
2020/12/11 02:23:18;;;;;;;38.35;20.30;;;;;;;0.10;100.00;94919.56;1044299;28;20079;-72
2020/12/11 02:23:49;;;;;;;35.42;18.83;;;;;;;0.14;100.00;94923.56;1040320;28;20010;-72